Time;durP1;ratioP1;P1;durP2;ratioP2;P2;SDS_P1;SDS_P2;PMS_P1;PMS_P2;Temp;Humidity;BMP_temperature;BMP_pressure;BME280_temperature;BME280_humidity;BME280_pressure;Samples;Min_cycle;Max_cycle;Signal;HPM_P1;HPM_P2
2022/07/16 00:02:34;;;;;;;2.92;1.07;;;;;;;11.83;66.16;96886.94;1788881;78;20993;-82
2022/07/16 00:04:59;;;;;;;1.60;0.90;;;;;;;11.80;66.09;96884.19;1792326;78;20994;-82
2022/07/16 00:07:25;;;;;;;2.75;0.90;;;;;;;11.78;66.82;96893.14;1790723;78;20964;-82
2022/07/16 00:09:51;;;;;;;1.62;0.80;;;;;;;11.73;66.97;96880.66;1790198;79;20995;-80
2022/07/16 00:12:16;;;;;;;1.75;0.80;;;;;;;11.70;67.21;96878.39;1791195;79;21315;-79
2022/07/16 00:14:42;;;;;;;1.50;0.93;;;;;;;11.67;67.37;96878.74;1789623;79;20959;-80
2022/07/16 00:17:08;;;;;;;2.87;0.65;;;;;;;11.66;67.76;96884.44;1788985;78;20952;-82
2022/07/16 00:19:34;;;;;;;3.47;1.07;;;;;;;11.68;67.77;96879.05;1786297;79;20999;-80
2022/07/16 00:22:00;;;;;;;4.55;1.00;;;;;;;11.69;67.59;96877.58;1793553;78;21330;-80
2022/07/16 00:24:26;;;;;;;3.65;0.90;;;;;;;11.68;67.41;96878.56;1796564;79;20947;-80
2022/07/16 00:26:52;;;;;;;3.72;0.98;;;;;;;11.66;67.62;96881.84;1785563;78;20937;-80
2022/07/16 00:29:19;;;;;;;2.52;0.80;;;;;;;11.63;67.60;96867.08;1792838;78;20960;-80
2022/07/16 00:31:48;;;;;;;2.02;1.00;;;;;;;11.61;67.60;96864.65;1787537;79;21039;-80
2022/07/16 00:34:14;;;;;;;2.10;1.12;;;;;;;11.60;67.64;96868.73;1792356;78;20995;-80
2022/07/16 00:36:40;;;;;;;3.02;1.20;;;;;;;11.59;67.81;96873.12;1788560;78;21389;-80
2022/07/16 00:39:07;;;;;;;2.65;0.80;;;;;;;11.58;67.90;96874.12;1793552;78;21421;-79
2022/07/16 00:41:34;;;;;;;2.27;0.93;;;;;;;11.60;67.24;96871.34;1789908;79;21034;-81
2022/07/16 00:44:03;;;;;;;1.45;0.75;;;;;;;11.61;67.08;96872.95;1792403;78;21062;-82
2022/07/16 00:46:29;;;;;;;2.20;0.98;;;;;;;11.60;67.55;96868.23;1791273;79;20963;-82
2022/07/16 00:48:55;;;;;;;3.08;0.88;;;;;;;11.59;67.47;96869.23;1788783;79;21004;-82
2022/07/16 00:51:24;;;;;;;2.25;0.80;;;;;;;11.58;67.22;96861.10;1785415;78;20999;-82
2022/07/16 00:53:50;;;;;;;2.52;0.90;;;;;;;11.58;67.72;96861.59;1792643;79;21038;-82
2022/07/16 00:56:16;;;;;;;2.47;1.15;;;;;;;11.58;67.55;96861.59;1787831;79;21070;-80
2022/07/16 00:58:43;;;;;;;2.00;1.07;;;;;;;11.56;66.92;96862.27;1788643;79;21035;-82
2022/07/16 01:01:09;;;;;;;2.87;1.17;;;;;;;11.54;67.71;96861.11;1786162;79;21006;-80
2022/07/16 01:03:35;;;;;;;2.75;0.80;;;;;;;11.54;67.96;96859.81;1788991;78;21365;-82
2022/07/16 01:06:05;;;;;;;2.15;0.75;;;;;;;11.55;67.92;96861.92;1789590;78;21025;-82
2022/07/16 01:08:33;;;;;;;2.47;1.10;;;;;;;11.53;67.16;96864.70;1791340;79;21082;-80
2022/07/16 01:10:59;;;;;;;4.12;1.10;;;;;;;11.53;67.13;96859.98;1790312;78;20961;-80
2022/07/16 01:13:25;;;;;;;2.42;0.90;;;;;;;11.55;67.90;96860.63;1792649;78;20970;-80
2022/07/16 01:15:51;;;;;;;2.27;1.20;;;;;;;11.58;68.09;96856.39;1792056;78;21338;-80
2022/07/16 01:18:16;;;;;;;2.47;0.98;;;;;;;11.56;67.50;96850.06;1776752;79;21066;-80
2022/07/16 01:20:42;;;;;;;2.27;1.00;;;;;;;11.55;67.37;96857.55;1783213;79;20974;-82
2022/07/16 01:23:09;;;;;;;1.67;1.00;;;;;;;11.52;67.70;96858.38;1809618;78;21009;-80
2022/07/16 01:25:34;;;;;;;2.62;0.78;;;;;;;11.51;68.25;96855.45;1817542;78;21934;-80
2022/07/16 01:28:00;;;;;;;2.22;1.32;;;;;;;11.47;67.59;96851.59;1814793;78;21025;-79
2022/07/16 01:30:26;;;;;;;3.90;1.07;;;;;;;11.43;67.39;96857.16;1815644;78;21000;-80
2022/07/16 01:32:51;;;;;;;2.77;1.00;;;;;;;11.41;67.42;96847.42;1795189;78;21508;-81
2022/07/16 01:35:18;;;;;;;2.60;1.00;;;;;;;11.42;68.11;96841.72;1813848;77;20958;-82
2022/07/16 01:37:44;;;;;;;4.67;1.12;;;;;;;11.46;68.31;96839.08;1813577;78;21317;-80
2022/07/16 01:40:10;;;;;;;3.60;0.90;;;;;;;11.47;68.26;96834.19;1819840;78;20911;-80
2022/07/16 01:42:36;;;;;;;1.67;0.90;;;;;;;11.47;68.29;96836.79;1813962;78;21025;-80
2022/07/16 01:45:02;;;;;;;2.10;1.22;;;;;;;11.46;68.39;96837.78;1822365;77;21317;-80
2022/07/16 01:47:27;;;;;;;2.30;0.95;;;;;;;11.42;68.56;96838.63;1813699;78;20928;-80
2022/07/16 01:49:53;;;;;;;3.27;1.20;;;;;;;11.39;68.65;96837.69;1817214;78;21042;-81
2022/07/16 01:52:21;;;;;;;3.60;1.27;;;;;;;11.34;68.74;96835.27;1815991;78;21070;-80
2022/07/16 01:54:52;;;;;;;3.33;0.98;;;;;;;11.30;69.13;96832.22;1817699;78;20974;-80
2022/07/16 01:57:19;;;;;;;4.28;1.30;;;;;;;11.29;68.80;96835.80;1816406;78;20946;-82
2022/07/16 01:59:45;;;;;;;3.52;1.17;;;;;;;11.28;68.77;96836.78;1818939;78;21298;-82
2022/07/16 02:02:11;;;;;;;4.65;1.40;;;;;;;11.29;69.00;96833.70;1819167;77;20924;-82
2022/07/16 02:04:37;;;;;;;2.52;0.90;;;;;;;11.27;69.34;96833.88;1811828;78;20952;-80
2022/07/16 02:07:03;;;;;;;4.40;0.93;;;;;;;11.24;69.49;96830.33;1816165;78;21303;-79
2022/07/16 02:09:29;;;;;;;2.30;0.90;;;;;;;11.21;69.71;96835.85;1817962;78;20955;-80
2022/07/16 02:11:54;;;;;;;2.40;1.10;;;;;;;11.16;69.91;96835.58;1817865;77;20928;-80
2022/07/16 02:14:20;;;;;;;1.98;0.90;;;;;;;11.11;70.13;96829.60;1818309;78;20951;-80
2022/07/16 02:16:46;;;;;;;3.72;1.17;;;;;;;11.08;70.10;96833.05;1816072;78;21005;-81
2022/07/16 02:19:11;;;;;;;2.65;0.90;;;;;;;11.06;69.66;96833.69;1822091;78;21336;-79
2022/07/16 02:21:37;;;;;;;2.17;0.70;;;;;;;11.07;69.68;96828.83;1815934;78;20927;-82
2022/07/16 02:24:04;;;;;;;2.22;0.90;;;;;;;11.07;69.82;96830.13;1820365;78;20947;-81
2022/07/16 02:26:29;;;;;;;1.80;0.95;;;;;;;11.06;70.50;96825.42;1814316;78;21370;-83
2022/07/16 02:28:55;;;;;;;2.52;0.93;;;;;;;11.05;70.02;96819.88;1814560;78;20980;-82
2022/07/16 02:31:21;;;;;;;3.05;1.05;;;;;;;11.00;69.97;96819.59;1813080;78;21046;-82
2022/07/16 02:33:47;;;;;;;2.67;0.95;;;;;;;10.98;69.92;96813.77;1813933;78;21378;-80
2022/07/16 02:36:13;;;;;;;5.28;1.02;;;;;;;10.96;69.82;96814.92;1813375;78;20998;-81
2022/07/16 02:38:38;;;;;;;4.37;1.17;;;;;;;10.95;69.70;96814.61;1813384;78;21054;-81
2022/07/16 02:41:05;;;;;;;2.22;0.88;;;;;;;10.95;69.80;96814.11;1810012;78;21017;-80
2022/07/16 02:43:31;;;;;;;2.10;1.10;;;;;;;10.96;69.90;96813.13;1816510;78;21413;-80
2022/07/16 02:45:56;;;;;;;1.95;1.20;;;;;;;10.99;69.67;96810.67;1817086;78;20912;-80
2022/07/16 02:48:22;;;;;;;1.35;0.85;;;;;;;10.99;69.64;96808.88;1813486;78;21029;-80
2022/07/16 02:50:48;;;;;;;4.67;1.15;;;;;;;11.01;69.79;96805.61;1818321;78;22019;-80
2022/07/16 02:53:14;;;;;;;2.47;1.10;;;;;;;11.02;70.06;96813.73;1811365;77;20955;-79
2022/07/16 02:55:39;;;;;;;6.17;2.62;;;;;;;11.02;70.41;96810.32;1813424;77;20950;-80
2022/07/16 02:58:05;;;;;;;3.65;1.15;;;;;;;11.01;70.84;96809.51;1792020;78;20946;-80
2022/07/16 03:00:31;;;;;;;6.37;1.25;;;;;;;11.00;71.10;96807.09;1810928;78;21030;-82
2022/07/16 03:02:56;;;;;;;3.62;1.42;;;;;;;11.02;71.61;96808.52;1814494;78;21054;-81
2022/07/16 03:05:22;;;;;;;4.75;1.20;;;;;;;11.05;71.81;96802.16;1816247;78;21034;-81
2022/07/16 03:07:48;;;;;;;4.45;1.62;;;;;;;11.08;71.79;96803.95;1817400;78;21750;-80
2022/07/16 03:10:14;;;;;;;2.37;1.12;;;;;;;11.13;71.94;96802.92;1817156;78;21015;-80
2022/07/16 03:12:40;;;;;;;4.55;1.92;;;;;;;11.19;72.19;96798.00;1817072;78;20935;-80
2022/07/16 03:15:07;;;;;;;4.30;1.62;;;;;;;11.20;71.95;96800.91;1784275;78;21022;-82
2022/07/16 03:17:33;;;;;;;3.08;1.10;;;;;;;11.21;71.69;96798.14;1813821;78;20921;-82
2022/07/16 03:19:58;;;;;;;1.70;1.05;;;;;;;11.22;71.87;96790.64;1800232;79;20971;-81
2022/07/16 03:22:24;;;;;;;2.67;1.00;;;;;;;11.22;71.42;96794.55;1804693;79;20970;-81
2022/07/16 03:24:50;;;;;;;3.92;1.20;;;;;;;11.26;71.26;96791.94;1800814;79;20973;-80
2022/07/16 03:27:16;;;;;;;3.08;1.52;;;;;;;11.31;71.46;96796.11;1797968;79;20943;-80
2022/07/16 03:29:41;;;;;;;3.75;1.32;;;;;;;11.36;71.52;96795.08;1804368;79;20948;-80
2022/07/16 03:32:07;;;;;;;3.08;1.30;;;;;;;11.40;71.72;96796.86;1802528;79;21290;-80
2022/07/16 03:34:33;;;;;;;8.25;2.10;;;;;;;11.41;71.82;96799.78;1801091;79;20979;-80
2022/07/16 03:36:59;;;;;;;1.90;1.50;;;;;;;11.42;71.96;96804.80;1803919;79;20921;-80
2022/07/16 03:39:25;;;;;;;1.87;1.10;;;;;;;11.45;72.15;96808.03;1805834;79;20967;-80
2022/07/16 03:41:50;;;;;;;2.62;1.20;;;;;;;11.46;72.26;96807.85;1772825;79;21818;-80
2022/07/16 03:44:16;;;;;;;1.50;0.90;;;;;;;11.49;72.23;96811.89;1801094;79;21005;-82
2022/07/16 03:46:42;;;;;;;4.33;1.40;;;;;;;11.51;72.12;96812.52;1797288;79;21013;-80
2022/07/16 03:49:08;;;;;;;3.40;1.12;;;;;;;11.52;72.40;96813.64;1805107;79;21155;-80
2022/07/16 03:51:34;;;;;;;2.52;1.10;;;;;;;11.54;72.39;96814.77;1783978;79;21067;-80
2022/07/16 03:54:01;;;;;;;1.98;1.10;;;;;;;11.56;72.71;96820.13;1799150;79;20923;-80
2022/07/16 03:56:26;;;;;;;3.58;1.10;;;;;;;11.59;72.99;96826.77;1758439;79;20983;-80
2022/07/16 03:58:52;;;;;;;2.87;1.27;;;;;;;11.59;72.90;96821.56;1800424;79;21448;-80
2022/07/16 04:01:19;;;;;;;3.05;1.25;;;;;;;11.57;72.66;96819.14;1793166;79;21074;-80
2022/07/16 04:03:44;;;;;;;3.27;1.00;;;;;;;11.61;72.62;96815.69;1802606;79;21465;-81
2022/07/16 04:06:10;;;;;;;2.65;1.30;;;;;;;11.65;72.63;96819.05;1795813;79;21020;-80
2022/07/16 04:08:36;;;;;;;4.35;1.30;;;;;;;11.69;72.89;96810.39;1784707;79;21025;-80
2022/07/16 04:11:02;;;;;;;3.25;1.37;;;;;;;11.69;73.00;96812.99;1759975;80;22076;-80
2022/07/16 04:13:27;;;;;;;3.17;1.20;;;;;;;11.69;73.54;96812.99;1799658;79;21006;-80
2022/07/16 04:15:53;;;;;;;2.08;1.30;;;;;;;11.68;74.01;96813.48;1766842;80;20933;-80
2022/07/16 04:18:20;;;;;;;2.08;1.10;;;;;;;11.67;74.24;96807.97;1762300;79;21036;-83
2022/07/16 04:20:47;;;;;;;4.12;1.32;;;;;;;11.70;74.52;96802.40;1815221;78;21030;-80
2022/07/16 04:23:13;;;;;;;2.15;1.22;;;;;;;11.74;74.72;96805.48;1808089;78;21002;-80
2022/07/16 04:25:40;;;;;;;1.92;1.22;;;;;;;11.79;74.65;96804.47;1821827;77;21266;-80
2022/07/16 04:28:06;;;;;;;3.62;1.30;;;;;;;11.85;74.71;96804.23;1813153;78;20923;-80
2022/07/16 04:30:31;;;;;;;2.85;1.47;;;;;;;11.89;74.94;96801.13;1817400;77;20912;-81
2022/07/16 04:32:57;;;;;;;2.90;1.50;;;;;;;11.92;75.23;96803.86;1766955;79;21298;-80
2022/07/16 04:35:23;;;;;;;4.12;1.45;;;;;;;11.96;75.43;96809.02;1771814;79;21006;-82
2022/07/16 04:37:49;;;;;;;3.50;1.10;;;;;;;11.98;75.37;96803.12;1769972;79;21086;-82
2022/07/16 04:40:15;;;;;;;4.65;1.20;;;;;;;12.02;75.23;96803.07;1781001;79;20982;-83
2022/07/16 04:42:43;;;;;;;4.58;1.17;;;;;;;12.08;75.68;96804.17;1765503;79;20939;-81
2022/07/16 04:45:10;;;;;;;3.20;1.50;;;;;;;12.16;75.27;96807.47;1767698;79;21007;-82
2022/07/16 04:47:37;;;;;;;3.92;1.25;;;;;;;12.21;75.00;96808.25;1813875;77;21328;-82
2022/07/16 04:50:04;;;;;;;3.52;1.35;;;;;;;12.22;75.09;96804.16;1817539;78;21005;-82
2022/07/16 04:52:30;;;;;;;3.25;1.35;;;;;;;12.23;75.11;96802.36;1818923;78;21364;-80
2022/07/16 04:54:59;;;;;;;3.27;1.42;;;;;;;12.23;75.36;96807.08;1820212;78;20938;-79
2022/07/16 04:57:25;;;;;;;4.53;1.00;;;;;;;12.25;75.04;96805.09;1816901;78;21011;-80
2022/07/16 04:59:52;;;;;;;3.58;1.30;;;;;;;12.28;75.04;96811.73;1821547;77;21078;-80
2022/07/16 05:05:02;;;;;;;4.65;1.50;;;;;;;12.32;75.21;96807.27;1816938;78;21062;-80
2022/07/16 05:07:28;;;;;;;2.85;1.20;;;;;;;12.37;75.53;96802.03;1815165;77;20985;-80
2022/07/16 05:09:54;;;;;;;3.25;1.22;;;;;;;12.36;75.63;96807.71;1821345;78;21006;-80
2022/07/16 05:12:19;;;;;;;3.30;1.40;;;;;;;12.37;75.57;96807.24;1819157;77;20955;-81
2022/07/16 05:14:45;;;;;;;3.50;1.37;;;;;;;12.40;75.68;96810.78;1819250;78;21266;-81
2022/07/16 05:17:11;;;;;;;3.95;1.00;;;;;;;12.43;75.65;96813.83;1813762;77;20975;-80
2022/07/16 05:19:37;;;;;;;1.65;1.40;;;;;;;12.46;75.62;96809.55;1822318;77;21021;-79
2022/07/16 05:22:04;;;;;;;2.72;1.15;;;;;;;12.50;75.72;96813.89;1821116;78;21061;-79
2022/07/16 05:24:29;;;;;;;4.08;1.35;;;;;;;12.52;75.91;96815.31;1822603;77;21061;-80
2022/07/16 05:26:55;;;;;;;2.60;1.17;;;;;;;12.55;76.25;96824.10;1816010;78;21429;-80
2022/07/16 05:29:21;;;;;;;3.60;1.55;;;;;;;12.56;76.30;96815.78;1818128;78;20978;-80
2022/07/16 05:31:47;;;;;;;3.37;1.10;;;;;;;12.60;76.33;96816.53;1822579;78;21315;-80
2022/07/16 05:34:13;;;;;;;3.90;1.05;;;;;;;12.67;76.73;96823.11;1824133;78;20983;-80
2022/07/16 05:36:38;;;;;;;2.35;1.00;;;;;;;12.74;77.26;96815.37;1790798;78;21457;-80
2022/07/16 05:39:04;;;;;;;4.00;1.75;;;;;;;12.81;77.01;96820.16;1754207;79;21049;-81
2022/07/16 05:41:30;;;;;;;6.10;1.80;;;;;;;12.85;77.26;96817.48;1791631;79;20998;-80
2022/07/16 05:43:57;;;;;;;4.55;1.32;;;;;;;12.89;77.48;96812.23;1810901;77;21353;-80
2022/07/16 05:46:23;;;;;;;4.17;1.05;;;;;;;12.91;77.49;96807.63;1810474;77;20955;-81
2022/07/16 05:48:49;;;;;;;2.72;1.10;;;;;;;12.93;77.16;96799.13;1808386;77;20967;-82
2022/07/16 05:51:15;;;;;;;3.45;1.45;;;;;;;13.00;77.16;96804.39;1774858;79;20964;-80
2022/07/16 05:53:40;;;;;;;3.45;1.35;;;;;;;13.03;77.31;96804.84;1776748;80;21382;-81
2022/07/16 05:56:06;;;;;;;2.67;1.30;;;;;;;13.11;77.56;96806.51;1780840;79;20939;-80
2022/07/16 05:58:32;;;;;;;2.98;1.40;;;;;;;13.16;77.20;96811.47;1791910;78;21015;-80
2022/07/16 06:00:58;;;;;;;2.30;1.30;;;;;;;13.26;77.65;96818.22;1821568;78;21077;-80
2022/07/16 06:03:25;;;;;;;1.75;1.20;;;;;;;13.30;77.00;96816.84;1792431;78;20944;-81
2022/07/16 06:05:50;;;;;;;3.67;1.47;;;;;;;13.34;77.06;96814.16;1816346;78;21405;-82
2022/07/16 06:08:16;;;;;;;4.08;1.40;;;;;;;13.42;77.44;96807.51;1817535;78;20962;-82
2022/07/16 06:10:42;;;;;;;3.90;1.60;;;;;;;13.48;76.94;96805.44;1818524;78;21002;-82
2022/07/16 06:13:09;;;;;;;2.10;1.12;;;;;;;13.55;75.21;96810.73;1815059;77;20978;-82
2022/07/16 06:15:35;;;;;;;2.85;1.30;;;;;;;13.61;77.00;96810.77;1824129;78;20948;-80
2022/07/16 06:18:01;;;;;;;3.47;1.50;;;;;;;13.67;76.90;96815.25;1823710;77;21357;-80
2022/07/16 06:20:26;;;;;;;4.40;1.75;;;;;;;13.69;76.70;96818.47;1821746;78;20975;-80
2022/07/16 06:22:54;;;;;;;5.40;1.87;;;;;;;13.76;74.48;96819.81;1804828;77;21160;-81
2022/07/16 06:25:20;;;;;;;4.15;1.72;;;;;;;13.83;72.56;96812.84;1815624;78;20924;-80
2022/07/16 06:27:47;;;;;;;3.37;1.67;;;;;;;13.93;72.29;96815.90;1819894;78;20994;-80
2022/07/16 06:30:13;;;;;;;6.33;2.00;;;;;;;14.04;71.53;96817.98;1819338;78;20975;-80
2022/07/16 06:32:39;;;;;;;4.60;1.60;;;;;;;14.13;72.19;96813.39;1816538;78;21015;-80
2022/07/16 06:35:06;;;;;;;3.98;2.00;;;;;;;14.18;73.48;96819.37;1816973;78;21027;-80
2022/07/16 06:37:32;;;;;;;4.15;1.80;;;;;;;14.24;73.30;96815.47;1806752;78;21050;-80
2022/07/16 06:39:57;;;;;;;4.87;2.40;;;;;;;14.31;73.43;96822.83;1798292;78;21330;-80
2022/07/16 06:42:23;;;;;;;3.95;1.62;;;;;;;14.39;73.45;96822.68;1816548;78;21074;-80
2022/07/16 06:44:49;;;;;;;3.50;1.62;;;;;;;14.45;73.97;96819.80;1811342;78;21315;-82
2022/07/16 06:47:15;;;;;;;3.08;1.42;;;;;;;14.55;72.64;96820.77;1811750;78;20935;-80
2022/07/16 06:49:40;;;;;;;3.12;1.50;;;;;;;14.66;71.29;96818.40;1816067;78;21007;-80
2022/07/16 06:52:07;;;;;;;6.10;1.60;;;;;;;14.79;71.77;96816.30;1810784;78;21067;-80
2022/07/16 06:54:33;;;;;;;4.45;2.58;;;;;;;14.87;72.32;96818.75;1814026;78;21027;-80
2022/07/16 06:56:58;;;;;;;4.42;1.90;;;;;;;14.96;72.85;96814.92;1811806;78;21373;-81
2022/07/16 06:59:24;;;;;;;4.65;2.00;;;;;;;15.05;72.61;96808.22;1808164;78;20954;-82
2022/07/16 07:01:52;;;;;;;3.00;1.70;;;;;;;15.10;69.44;96811.03;1806676;78;21029;-79
2022/07/16 07:04:17;;;;;;;4.80;1.85;;;;;;;15.18;69.05;96804.31;1812765;78;21544;-79
2022/07/16 07:06:43;;;;;;;4.00;1.40;;;;;;;15.27;68.21;96804.41;1808452;78;20919;-79
2022/07/16 07:09:09;;;;;;;3.72;1.52;;;;;;;15.35;68.24;96805.53;1807545;77;20928;-79
2022/07/16 07:11:34;;;;;;;2.70;1.60;;;;;;;15.47;66.56;96804.43;1811096;78;20967;-79
2022/07/16 07:14:00;;;;;;;4.53;1.60;;;;;;;15.56;65.09;96801.39;1812839;78;21373;-79
2022/07/16 07:16:26;;;;;;;3.10;1.35;;;;;;;15.69;66.46;96801.92;1802779;78;21025;-79
2022/07/16 07:18:52;;;;;;;5.87;1.50;;;;;;;15.75;65.58;96799.78;1806605;78;21023;-80
2022/07/16 07:21:17;;;;;;;5.25;1.60;;;;;;;15.83;64.53;96798.78;1815506;78;21393;-79
2022/07/16 07:23:43;;;;;;;5.12;1.40;;;;;;;15.93;64.89;96798.34;1807501;78;21354;-79
2022/07/16 07:26:09;;;;;;;3.95;1.35;;;;;;;16.03;64.79;96792.98;1799652;78;20919;-78
2022/07/16 07:28:35;;;;;;;3.45;1.05;;;;;;;16.09;63.34;96794.77;1807295;78;21052;-79
2022/07/16 07:31:01;;;;;;;3.08;1.42;;;;;;;16.18;63.98;96794.86;1799349;78;21050;-79
2022/07/16 07:33:26;;;;;;;3.10;1.30;;;;;;;16.25;63.27;96796.13;1772094;78;21027;-79
2022/07/16 07:35:53;;;;;;;3.50;1.27;;;;;;;16.34;62.34;96789.66;1773352;79;20940;-80
2022/07/16 07:38:18;;;;;;;2.42;1.37;;;;;;;16.43;62.85;96794.15;1771935;79;21046;-79
2022/07/16 07:40:44;;;;;;;3.12;1.30;;;;;;;16.50;62.45;96793.63;1802934;78;21447;-79
2022/07/16 07:43:10;;;;;;;2.45;1.75;;;;;;;16.57;61.47;96792.27;1807118;78;20981;-78
2022/07/16 07:45:37;;;;;;;4.28;1.40;;;;;;;16.62;60.82;96794.59;1817716;78;21070;-79
2022/07/16 07:48:04;;;;;;;3.98;1.57;;;;;;;16.67;61.41;96790.85;1817076;78;20926;-79
2022/07/16 07:50:30;;;;;;;5.25;1.80;;;;;;;16.74;60.88;96792.92;1801000;78;21061;-78
2022/07/16 07:52:55;;;;;;;2.45;1.20;;;;;;;16.85;60.94;96787.52;1807332;78;21030;-80
2022/07/16 07:55:21;;;;;;;1.82;1.02;;;;;;;16.97;60.50;96790.28;1778496;79;21426;-80
2022/07/16 07:57:47;;;;;;;2.65;1.32;;;;;;;17.10;60.41;96794.14;1801600;78;20935;-80
2022/07/16 08:00:15;;;;;;;2.60;0.88;;;;;;;17.28;60.14;96780.27;1807597;78;20923;-79
2022/07/16 08:02:45;;;;;;;2.52;0.98;;;;;;;17.47;59.57;96782.44;1812852;78;20982;-79
2022/07/16 08:05:10;;;;;;;3.00;1.20;;;;;;;17.70;58.89;96778.72;1808564;78;21369;-79
2022/07/16 08:07:36;;;;;;;4.20;0.95;;;;;;;17.99;58.16;96781.97;1816249;78;20966;-79
2022/07/16 08:10:03;;;;;;;3.42;1.12;;;;;;;18.18;56.32;96778.02;1805047;78;20951;-80
2022/07/16 08:12:29;;;;;;;4.37;1.40;;;;;;;18.31;56.40;96792.34;1810145;78;21013;-78
2022/07/16 08:14:55;;;;;;;2.85;1.20;;;;;;;18.35;56.16;96786.13;1806687;78;21342;-78
2022/07/16 08:17:20;;;;;;;6.20;1.72;;;;;;;18.40;55.97;96783.65;1811269;78;20975;-79
2022/07/16 08:19:46;;;;;;;4.67;1.20;;;;;;;18.43;56.31;96788.47;1784466;78;21563;-79
2022/07/16 08:22:13;;;;;;;3.12;1.32;;;;;;;18.45;57.19;96785.90;1795139;78;21078;-79
2022/07/16 08:27:23;;;;;;;2.85;1.10;;;;;;;18.47;55.12;96786.99;1803718;78;21045;-78
2022/07/16 08:29:49;;;;;;;4.20;1.50;;;;;;;18.59;54.04;96775.50;1801223;78;21306;-79
2022/07/16 08:32:15;;;;;;;2.22;1.12;;;;;;;18.76;54.59;96783.61;1804107;78;20995;-79
2022/07/16 08:34:40;;;;;;;3.42;1.32;;;;;;;18.85;54.90;96784.08;1796666;78;20903;-80
2022/07/16 08:37:10;;;;;;;2.37;0.93;;;;;;;18.88;54.54;96781.83;1799905;78;21037;-79
2022/07/16 08:39:44;;;;;;;2.15;1.00;;;;;;;18.93;53.88;96778.52;1813338;78;21351;-79
2022/07/16 08:42:11;;;;;;;2.70;1.12;;;;;;;19.04;53.92;96780.39;1801328;78;20987;-79
2022/07/16 08:44:39;;;;;;;2.90;1.37;;;;;;;19.29;53.95;96780.71;1770835;79;22082;-79
2022/07/16 08:47:07;;;;;;;2.37;1.10;;;;;;;19.44;54.20;96781.88;1785467;79;21402;-80
2022/07/16 08:49:32;;;;;;;2.05;1.25;;;;;;;19.41;53.67;96778.39;1779344;79;21054;-80
2022/07/16 08:52:00;;;;;;;4.65;1.50;;;;;;;19.33;53.29;96770.80;1800414;78;20979;-80
2022/07/16 08:54:26;;;;;;;4.10;1.45;;;;;;;19.53;52.74;96769.70;1806242;78;20964;-79
2022/07/16 08:56:51;;;;;;;3.70;1.40;;;;;;;19.75;51.18;96784.73;1804413;78;21345;-79
2022/07/16 08:59:17;;;;;;;3.47;1.60;;;;;;;19.83;52.00;96767.75;1805440;78;20970;-79
2022/07/16 09:01:43;;;;;;;3.58;1.50;;;;;;;19.94;52.56;96767.47;1799396;78;20982;-79
2022/07/16 09:04:09;;;;;;;3.37;1.50;;;;;;;19.99;51.52;96767.56;1793645;78;20954;-80
2022/07/16 09:06:34;;;;;;;3.27;1.50;;;;;;;20.08;51.25;96768.30;1807248;78;21056;-79
2022/07/16 09:09:00;;;;;;;4.53;1.77;;;;;;;20.21;50.97;96764.62;1813906;78;21528;-79
2022/07/16 09:11:29;;;;;;;3.42;1.35;;;;;;;20.13;50.94;96763.64;1801756;77;21056;-80
2022/07/16 09:14:14;;;;;;;2.15;1.10;;;;;;;19.86;49.05;96763.88;1784373;78;20974;-79
2022/07/16 09:16:49;;;;;;;6.25;3.00;;;;;;;19.72;50.47;96773.34;1775163;79;20939;-79
2022/07/16 09:19:19;;;;;;;3.55;1.40;;;;;;;19.78;50.63;96763.69;1802204;78;20983;-79
2022/07/16 09:22:10;;;;;;;2.15;1.50;;;;;;;20.01;51.08;96757.09;1795945;79;21086;-79
2022/07/16 09:24:42;;;;;;;;;;;;;;;20.17;49.86;96763.45;1796232;79;21054;-79
2022/07/16 09:27:17;;;;;;;2.17;1.05;;;;;;;20.06;50.62;96762.47;1793254;79;20101;-79
2022/07/16 09:29:51;;;;;;;3.27;1.20;;;;;;;19.99;50.75;96761.77;1789663;79;20971;-78
2022/07/16 09:32:39;;;;;;;4.58;1.42;;;;;;;19.87;48.37;96763.64;1792303;79;21450;-80
2022/07/16 09:35:11;;;;;;;3.27;1.70;;;;;;;19.72;49.76;96768.06;1795406;79;21002;-79
2022/07/16 09:37:54;;;;;;;4.22;1.52;;;;;;;19.62;50.49;96770.97;1795456;79;20912;-79
2022/07/16 09:40:40;;;;;;;4.10;1.30;;;;;;;19.60;50.64;96775.67;1790894;79;21326;-79
2022/07/16 09:43:17;;;;;;;2.22;1.40;;;;;;;19.61;50.73;96776.77;1794683;79;20944;-80
2022/07/16 09:45:50;;;;;;;3.08;1.62;;;;;;;19.66;51.03;96768.16;1790854;79;21054;-80
2022/07/16 09:48:31;;;;;;;3.62;1.72;;;;;;;19.71;50.97;96766.98;1790924;79;21410;-79
2022/07/16 09:51:20;;;;;;;5.08;1.90;;;;;;;19.81;51.95;96765.06;1798616;78;21520;-80
2022/07/16 09:53:47;;;;;;;5.72;1.67;;;;;;;20.04;51.00;96767.69;1796950;79;21347;-81
2022/07/16 09:56:20;;;;;;;3.90;1.57;;;;;;;20.11;51.15;96761.76;1793932;79;20939;-81
2022/07/16 09:58:49;;;;;;;3.45;1.30;;;;;;;20.24;50.81;96761.51;1791191;79;21414;-80
2022/07/16 10:01:15;;;;;;;4.25;1.87;;;;;;;20.33;50.12;96754.81;1791622;79;21468;-81
2022/07/16 10:03:44;;;;;;;5.12;1.98;;;;;;;20.35;51.10;96754.09;1798112;79;20972;-79
2022/07/16 10:06:10;;;;;;;5.70;1.90;;;;;;;20.55;51.53;96762.94;1789066;79;21400;-80
2022/07/16 10:08:36;;;;;;;3.67;1.60;;;;;;;20.73;50.66;96754.55;1792855;79;21028;-80
2022/07/16 10:11:03;;;;;;;6.15;2.27;;;;;;;20.67;49.31;96755.78;1789852;79;21003;-80
2022/07/16 10:13:29;;;;;;;3.60;2.15;;;;;;;20.76;49.79;96749.58;1796044;79;20967;-80
2022/07/16 10:15:55;;;;;;;5.47;2.00;;;;;;;20.74;49.28;96756.14;1792035;79;20958;-79
2022/07/16 10:18:41;;;;;;;5.85;3.42;;;;;;;20.61;49.07;96751.42;1798090;79;21310;-79
2022/07/16 10:21:18;;;;;;;4.37;2.30;;;;;;;20.73;49.50;96754.02;1802380;77;21078;-82
2022/07/16 10:23:47;;;;;;;3.90;2.00;;;;;;;20.73;48.47;96748.74;1808412;78;21026;-81
2022/07/16 10:26:21;;;;;;;3.72;1.65;;;;;;;20.86;49.00;96756.90;1809213;78;21046;-80
2022/07/16 10:28:50;;;;;;;4.00;1.87;;;;;;;20.80;50.08;96748.58;1804752;78;21010;-79
2022/07/16 10:32:27;;;;;;;4.15;1.60;;;;;;;20.86;49.93;96745.81;1805635;78;21423;-80
2022/07/16 10:34:19;;;;;;;3.02;1.45;;;;;;;20.91;49.02;96747.73;1777703;78;21097;-80
2022/07/16 10:36:57;;;;;;;4.05;1.70;;;;;;;20.78;48.51;96734.30;1804492;78;20943;-80
2022/07/16 10:39:25;;;;;;;5.40;1.95;;;;;;;20.65;49.75;96737.23;1806855;77;21999;-81
2022/07/16 10:42:00;;;;;;;2.52;1.40;;;;;;;20.50;49.57;96739.58;1813017;78;20956;-80
2022/07/16 10:44:45;;;;;;;3.45;1.77;;;;;;;20.44;49.76;96732.62;1774806;79;20986;-80
2022/07/16 10:47:11;;;;;;;3.87;1.80;;;;;;;20.43;49.87;96745.53;1803401;77;20964;-81
2022/07/16 10:49:37;;;;;;;4.78;1.85;;;;;;;20.44;50.87;96738.70;1809809;77;21480;-80
2022/07/16 10:52:09;;;;;;;2.92;1.70;;;;;;;20.39;49.99;96735.42;1803912;78;20967;-80
2022/07/16 10:54:41;;;;;;;3.87;1.75;;;;;;;20.32;50.02;96733.42;1812454;78;21050;-79
2022/07/16 10:57:11;;;;;;;3.25;1.50;;;;;;;20.27;50.07;96735.16;1779478;78;20974;-79
2022/07/16 10:59:43;;;;;;;5.08;1.80;;;;;;;20.23;50.79;96736.67;1814080;78;20954;-80
2022/07/16 11:02:10;;;;;;;2.90;1.62;;;;;;;20.20;50.85;96732.67;1805197;78;20943;-80
2022/07/16 11:04:46;;;;;;;3.70;1.50;;;;;;;20.18;51.17;96731.31;1807552;78;20912;-79
2022/07/16 11:07:19;;;;;;;2.62;1.40;;;;;;;20.15;49.93;96732.55;1807882;78;21413;-80
2022/07/16 11:09:52;;;;;;;4.37;1.85;;;;;;;20.12;50.21;96729.59;1818621;78;21338;-79
2022/07/16 11:12:25;;;;;;;3.12;1.80;;;;;;;20.25;51.28;96729.33;1814829;78;20954;-79
2022/07/16 11:14:53;;;;;;;3.60;2.20;;;;;;;20.39;50.35;96730.66;1806963;78;20951;-80
2022/07/16 11:17:21;;;;;;;3.50;1.90;;;;;;;20.33;50.38;96725.78;1809736;78;20931;-80
2022/07/16 11:19:52;;;;;;;4.22;2.22;;;;;;;20.23;49.46;96733.52;1809823;78;21507;-80
2022/07/16 11:22:23;;;;;;;4.55;1.90;;;;;;;20.12;50.97;96728.27;1803808;77;21171;-79
2022/07/16 11:24:54;;;;;;;3.90;2.00;;;;;;;19.94;50.32;96725.27;1785247;78;20940;-79
2022/07/16 11:27:31;;;;;;;3.52;1.95;;;;;;;19.86;51.32;96725.64;1791784;78;21023;-79
2022/07/16 11:29:59;;;;;;;3.45;1.82;;;;;;;19.74;51.15;96728.28;1782680;79;20991;-79
2022/07/16 11:32:25;;;;;;;3.50;1.98;;;;;;;19.70;52.04;96727.95;1779036;79;21029;-78
2022/07/16 11:34:51;;;;;;;4.65;1.57;;;;;;;19.67;52.34;96722.31;1787125;78;20941;-79
2022/07/16 11:37:17;;;;;;;5.22;1.72;;;;;;;19.65;51.51;96720.42;1791729;78;21469;-79
2022/07/16 11:39:43;;;;;;;3.60;2.08;;;;;;;19.63;52.58;96723.81;1788628;78;21457;-79
2022/07/16 11:42:09;;;;;;;3.47;2.17;;;;;;;19.59;51.39;96728.75;1785919;78;20959;-79